Time;durP1;ratioP1;P1;durP2;ratioP2;P2;SDS_P1;SDS_P2;PMS_P1;PMS_P2;Temp;Humidity;BMP_temperature;BMP_pressure;BME280_temperature;BME280_humidity;BME280_pressure;Samples;Min_cycle;Max_cycle;Signal;HPM_P1;HPM_P2
2021/05/14 00:01:16;;;;;;;0.50;0.10;;;;;;;;;;4981888;28;20034;-71
2021/05/14 00:03:43;;;;;;;1.00;0.10;;;;;;;;;;4993132;28;20033;-70
2021/05/14 00:06:11;;;;;;;1.27;0.25;;;;;;;;;;4994904;28;20395;-70
2021/05/14 00:08:38;;;;;;;4.85;0.43;;;;;;;;;;5013038;28;20026;-70
2021/05/14 00:11:05;;;;;;;3.00;0.30;;;;;;;;;;5014630;28;20029;-69
2021/05/14 00:13:32;;;;;;;7.20;0.60;;;;;;;;;;4996474;28;20030;-71
2021/05/14 00:15:59;;;;;;;3.83;0.20;;;;;;;;;;5013153;28;20049;-70
2021/05/14 00:18:26;;;;;;;1.73;0.20;;;;;;;;;;5012609;28;20390;-71
2021/05/14 00:20:53;;;;;;;1.63;0.28;;;;;;;;;;5014285;28;20390;-70
2021/05/14 00:23:20;;;;;;;0.52;0.10;;;;;;;;;;5012709;28;20026;-70
2021/05/14 00:25:47;;;;;;;1.08;0.20;;;;;;;;;;4996472;28;20022;-69
2021/05/14 00:28:15;;;;;;;1.38;0.20;;;;;;;;;;4994370;28;20036;-71
2021/05/14 00:30:42;;;;;;;2.13;0.20;;;;;;;;;;5014129;28;20018;-70
2021/05/14 00:33:09;;;;;;;2.20;0.43;;;;;;;;;;4995893;28;20030;-69
2021/05/14 00:35:36;;;;;;;1.55;0.40;;;;;;;;;;5014283;28;20108;-69
2021/05/14 00:38:03;;;;;;;1.45;0.20;;;;;;;;;;5012631;28;20029;-70
2021/05/14 00:40:32;;;;;;;0.95;0.10;;;;;;;;;;4994652;28;20109;-69
2021/05/14 00:42:59;;;;;;;1.15;0.05;;;;;;;;;;5012134;28;20044;-70
2021/05/14 00:45:26;;;;;;;4.35;0.90;;;;;;;;;;4996736;28;20422;-69
2021/05/14 00:47:53;;;;;;;1.20;0.28;;;;;;;;;;5012305;28;20034;-69
2021/05/14 00:50:20;;;;;;;3.47;0.40;;;;;;;;;;4996059;28;20034;-68
2021/05/14 00:52:48;;;;;;;0.35;0.10;;;;;;;;;;5009836;28;20021;-68
2021/05/14 00:55:15;;;;;;;1.42;0.10;;;;;;;;;;5010924;28;20021;-68
2021/05/14 00:57:42;;;;;;;3.35;0.20;;;;;;;;;;5012585;28;20071;-69
2021/05/14 01:00:10;;;;;;;0.88;0.22;;;;;;;;;;4989130;28;20180;-69
2021/05/14 01:02:37;;;;;;;1.27;0.10;;;;;;;;;;5012405;28;20113;-68
2021/05/14 01:05:05;;;;;;;2.35;0.20;;;;;;;;;;5012347;28;20382;-69
2021/05/14 01:07:32;;;;;;;1.48;0.20;;;;;;;;;;5013368;28;20364;-68
2021/05/14 01:09:59;;;;;;;2.45;0.30;;;;;;;;;;5012748;28;20167;-69
2021/05/14 01:12:26;;;;;;;3.78;0.40;;;;;;;;;;5011975;28;20112;-69
2021/05/14 01:14:53;;;;;;;0.63;0.10;;;;;;;;;;4993467;28;20489;-69
2021/05/14 01:17:20;;;;;;;0.65;0.10;;;;;;;;;;4993536;28;20029;-69
2021/05/14 01:19:49;;;;;;;0.50;0.10;;;;;;;;;;5011375;28;20030;-70
2021/05/14 01:22:18;;;;;;;2.67;0.55;;;;;;;;;;5013392;28;20092;-69
2021/05/14 01:24:45;;;;;;;0.77;0.10;;;;;;;;;;5013559;28;20393;-69
2021/05/14 01:27:13;;;;;;;1.30;0.20;;;;;;;;;;5013350;28;20032;-70
2021/05/14 01:29:40;;;;;;;3.38;0.40;;;;;;;;;;4994671;28;20121;-70
2021/05/14 01:32:07;;;;;;;4.38;0.20;;;;;;;;;;4995361;28;20467;-69
2021/05/14 01:34:34;;;;;;;0.40;0.00;;;;;;;;;;5011295;28;20045;-70
2021/05/14 01:37:01;;;;;;;1.33;0.20;;;;;;;;;;5013050;28;20029;-71
2021/05/14 01:39:28;;;;;;;1.40;0.20;;;;;;;;;;5010498;28;20073;-70
2021/05/14 01:41:56;;;;;;;1.20;0.20;;;;;;;;;;4995311;28;20070;-70
2021/05/14 01:44:23;;;;;;;2.13;0.20;;;;;;;;;;5011105;28;20034;-71
2021/05/14 01:46:51;;;;;;;3.20;0.13;;;;;;;;;;4995182;28;20069;-70
2021/05/14 01:49:18;;;;;;;1.52;0.55;;;;;;;;;;5007163;28;20494;-69
2021/05/14 01:51:46;;;;;;;1.85;0.20;;;;;;;;;;5012201;28;20037;-69
2021/05/14 01:54:13;;;;;;;0.82;0.10;;;;;;;;;;5007708;28;20030;-69
2021/05/14 01:56:40;;;;;;;0.77;0.10;;;;;;;;;;5012810;28;20056;-69
2021/05/14 01:59:07;;;;;;;1.30;0.10;;;;;;;;;;4992996;28;20026;-70
2021/05/14 02:01:34;;;;;;;3.63;0.22;;;;;;;;;;5012530;28;20022;-69
2021/05/14 02:04:01;;;;;;;0.75;0.20;;;;;;;;;;5010618;28;20029;-70
2021/05/14 02:06:28;;;;;;;3.13;0.30;;;;;;;;;;4994749;28;20474;-71
2021/05/14 02:08:56;;;;;;;2.03;0.17;;;;;;;;;;5010957;28;20025;-69
2021/05/14 02:11:23;;;;;;;2.97;0.30;;;;;;;;;;5012603;28;20104;-70
2021/05/14 02:13:50;;;;;;;3.42;0.55;;;;;;;;;;4991840;28;20049;-70
2021/05/14 02:16:17;;;;;;;3.10;0.60;;;;;;;;;;4994452;28;20049;-69
2021/05/14 02:18:44;;;;;;;2.42;0.40;;;;;;;;;;5011450;28;20030;-70
2021/05/14 02:21:11;;;;;;;0.40;0.30;;;;;;;;;;5012737;28;20024;-69
2021/05/14 02:23:38;;;;;;;3.65;1.00;;;;;;;;;;5011271;28;20021;-71
2021/05/14 02:26:06;;;;;;;0.40;0.10;;;;;;;;;;4994956;28;20121;-70
2021/05/14 02:28:34;;;;;;;2.05;0.10;;;;;;;;;;5010816;28;20045;-70
2021/05/14 02:31:01;;;;;;;1.60;0.30;;;;;;;;;;5010504;28;20026;-70
2021/05/14 02:33:29;;;;;;;1.63;0.10;;;;;;;;;;5011125;28;20034;-70
2021/05/14 02:35:56;;;;;;;0.70;0.13;;;;;;;;;;5012407;28;20064;-69
2021/05/14 02:38:24;;;;;;;1.85;0.30;;;;;;;;;;4993429;28;20030;-71
2021/05/14 02:40:51;;;;;;;2.00;0.30;;;;;;;;;;4995064;28;20062;-71
2021/05/14 02:43:18;;;;;;;1.42;0.93;;;;;;;;;;4992873;28;20034;-71
2021/05/14 02:45:45;;;;;;;1.60;0.30;;;;;;;;;;4994936;28;20121;-69
2021/05/14 02:48:14;;;;;;;1.67;0.10;;;;;;;;;;5008297;28;20109;-71
2021/05/14 02:50:41;;;;;;;1.65;0.20;;;;;;;;;;4993128;28;20105;-72
2021/05/14 02:53:08;;;;;;;0.32;0.00;;;;;;;;;;4995848;28;20030;-70
2021/05/14 02:55:36;;;;;;;1.48;0.20;;;;;;;;;;5011730;28;20101;-71
2021/05/14 02:58:03;;;;;;;3.75;0.93;;;;;;;;;;4991248;28;20088;-69
2021/05/14 03:00:30;;;;;;;2.33;0.57;;;;;;;;;;5011622;28;20029;-70
2021/05/14 03:02:57;;;;;;;2.88;1.00;;;;;;;;;;5010109;28;20144;-70
2021/05/14 03:05:25;;;;;;;0.98;0.40;;;;;;;;;;5012319;28;20032;-68
2021/05/14 03:07:52;;;;;;;0.30;0.10;;;;;;;;;;5009623;28;20029;-68
2021/05/14 03:10:20;;;;;;;0.85;0.20;;;;;;;;;;4994577;28;20109;-70
2021/05/14 03:12:47;;;;;;;1.23;0.10;;;;;;;;;;4992972;28;20030;-71
2021/05/14 03:15:14;;;;;;;0.82;0.20;;;;;;;;;;5010794;28;20061;-69
2021/05/14 03:17:41;;;;;;;0.90;0.20;;;;;;;;;;5011226;28;20030;-69
2021/05/14 03:20:09;;;;;;;0.65;0.03;;;;;;;;;;4997419;28;20026;-68
2021/05/14 03:22:37;;;;;;;2.75;0.25;;;;;;;;;;4995958;28;20121;-67
2021/05/14 03:25:04;;;;;;;0.95;0.10;;;;;;;;;;5015106;28;20096;-69
2021/05/14 03:27:32;;;;;;;1.45;0.10;;;;;;;;;;4998026;28;20033;-69
2021/05/14 03:29:59;;;;;;;3.90;0.30;;;;;;;;;;5013700;28;20025;-68
2021/05/14 03:32:27;;;;;;;1.88;0.10;;;;;;;;;;5015490;28;20040;-68
2021/05/14 03:34:54;;;;;;;5.22;1.27;;;;;;;;;;5012580;28;20517;-69
2021/05/14 03:37:21;;;;;;;0.32;0.20;;;;;;;;;;5012029;28;20029;-69
2021/05/14 03:39:53;;;;;;;2.45;0.10;;;;;;;;;;4996103;28;20449;-69
2021/05/14 03:42:26;;;;;;;3.13;0.10;;;;;;;;;;4995370;28;20034;-69
2021/05/14 03:44:54;;;;;;;1.45;0.20;;;;;;;;;;5010348;28;20395;-71
2021/05/14 03:47:24;;;;;;;1.25;0.10;;;;;;;;;;4996171;28;20026;-69
2021/05/14 03:49:52;;;;;;;1.80;0.10;;;;;;;;;;5013180;28;20406;-69
2021/05/14 03:52:19;;;;;;;0.20;0.00;;;;;;;;;;4997433;28;20038;-68
2021/05/14 03:54:46;;;;;;;2.13;0.15;;;;;;;;;;5013247;28;20446;-69
2021/05/14 03:57:14;;;;;;;1.27;0.08;;;;;;;;;;5015032;28;20030;-68
2021/05/14 03:59:41;;;;;;;0.47;0.10;;;;;;;;;;4995593;28;20125;-68
2021/05/14 04:02:09;;;;;;;2.30;0.22;;;;;;;;;;4997219;28;20034;-68
2021/05/14 04:04:36;;;;;;;2.05;0.20;;;;;;;;;;5012757;28;20030;-68
2021/05/14 04:07:05;;;;;;;0.43;0.10;;;;;;;;;;5014644;28;20578;-69
2021/05/14 04:09:33;;;;;;;2.70;0.20;;;;;;;;;;4994991;28;20038;-68
2021/05/14 04:12:16;;;;;;;3.13;0.68;;;;;;;;;;5014506;28;20029;-68
2021/05/14 04:14:43;;;;;;;1.33;0.32;;;;;;;;;;4993819;28;20022;-68
2021/05/14 04:17:10;;;;;;;2.03;0.47;;;;;;;;;;5014427;28;20072;-68
2021/05/14 04:19:37;;;;;;;3.92;0.35;;;;;;;;;;4981341;28;20034;-69
2021/05/14 04:22:06;;;;;;;4.70;0.30;;;;;;;;;;4994398;28;20104;-68
2021/05/14 04:24:33;;;;;;;3.13;0.40;;;;;;;;;;4993953;28;20168;-68
2021/05/14 04:27:00;;;;;;;2.55;0.70;;;;;;;;;;5014237;28;20498;-69
2021/05/14 04:29:28;;;;;;;2.17;0.95;;;;;;;;;;5010780;28;20112;-69
2021/05/14 04:31:55;;;;;;;3.92;2.10;;;;;;;;;;5012491;28;20502;-69
2021/05/14 04:34:22;;;;;;;3.10;1.10;;;;;;;;;;4994365;28;20390;-69
2021/05/14 04:36:49;;;;;;;1.40;0.20;;;;;;;;;;5011692;28;20061;-68
2021/05/14 04:39:17;;;;;;;0.13;0.10;;;;;;;;;;5007356;28;20034;-68
2021/05/14 04:41:44;;;;;;;0.55;0.00;;;;;;;;;;4996348;28;20129;-68
2021/05/14 04:44:11;;;;;;;1.38;0.10;;;;;;;;;;4996394;28;20050;-68
2021/05/14 04:46:41;;;;;;;0.50;0.10;;;;;;;;;;5013788;28;20477;-68
2021/05/14 04:49:08;;;;;;;1.42;0.25;;;;;;;;;;5012258;28;20382;-68
2021/05/14 04:51:35;;;;;;;1.50;0.20;;;;;;;;;;5013954;28;20021;-68
2021/05/14 04:54:02;;;;;;;0.73;0.20;;;;;;;;;;5011989;28;20030;-69
2021/05/14 04:56:29;;;;;;;2.92;0.30;;;;;;;;;;4995744;28;20442;-68
2021/05/14 04:58:56;;;;;;;1.98;0.30;;;;;;;;;;5012201;28;20061;-68
2021/05/14 05:01:24;;;;;;;0.35;0.10;;;;;;;;;;5012663;28;20034;-69
2021/05/14 05:03:55;;;;;;;2.28;0.15;;;;;;;;;;4994528;28;20030;-69
2021/05/14 05:06:22;;;;;;;2.47;0.47;;;;;;;;;;5013615;28;20022;-69
2021/05/14 05:08:50;;;;;;;1.98;0.10;;;;;;;;;;5012166;28;20026;-68
2021/05/14 05:11:17;;;;;;;1.02;0.43;;;;;;;;;;5013590;28;20018;-68
2021/05/14 05:13:44;;;;;;;7.72;0.40;;;;;;;;;;5010567;28;20025;-69
2021/05/14 05:16:11;;;;;;;1.02;0.30;;;;;;;;;;5012924;28;20129;-68
2021/05/14 05:18:38;;;;;;;2.15;0.17;;;;;;;;;;5012647;28;20036;-68
2021/05/14 05:21:06;;;;;;;3.72;0.10;;;;;;;;;;5013411;28;20056;-68
2021/05/14 05:23:33;;;;;;;2.97;0.63;;;;;;;;;;5009898;28;20030;-68
2021/05/14 05:26:00;;;;;;;1.23;0.17;;;;;;;;;;5011587;28;20084;-68
2021/05/14 05:28:29;;;;;;;2.28;0.15;;;;;;;;;;4993862;28;20030;-68
2021/05/14 05:30:57;;;;;;;1.15;0.10;;;;;;;;;;5010999;28;20067;-68
2021/05/14 05:33:24;;;;;;;1.70;0.28;;;;;;;;;;5008603;28;20030;-68
2021/05/14 05:35:51;;;;;;;1.42;0.20;;;;;;;;;;5011566;28;20025;-68
2021/05/14 05:38:24;;;;;;;0.50;0.10;;;;;;;;;;4992069;28;20030;-68
2021/05/14 05:40:51;;;;;;;3.15;0.30;;;;;;;;;;5013053;28;20023;-68
2021/05/14 05:43:19;;;;;;;1.50;0.10;;;;;;;;;;5010280;28;20033;-68
2021/05/14 05:45:46;;;;;;;1.65;0.20;;;;;;;;;;5012856;28;20041;-68
2021/05/14 05:48:13;;;;;;;2.65;0.20;;;;;;;;;;4993936;28;20018;-68
2021/05/14 05:50:41;;;;;;;0.98;0.10;;;;;;;;;;5013041;28;20033;-68
2021/05/14 05:53:08;;;;;;;0.47;0.10;;;;;;;;;;5010446;28;20433;-68
2021/05/14 05:55:36;;;;;;;3.22;0.25;;;;;;;;;;5012354;28;20452;-68
2021/05/14 05:58:21;;;;;;;0.90;0.22;;;;;;;;;;5011130;28;20029;-68
2021/05/14 06:00:48;;;;;;;0.43;0.05;;;;;;;;;;5012742;28;20391;-68
2021/05/14 06:03:16;;;;;;;1.38;0.17;;;;;;;;;;4993518;28;20030;-68
2021/05/14 06:05:43;;;;;;;1.45;0.13;;;;;;;;;;5012531;28;20470;-68
2021/05/14 06:08:10;;;;;;;1.60;0.20;;;;;;;;;;5011116;28;20030;-68
2021/05/14 06:10:37;;;;;;;0.85;0.45;;;;;;;;;;5012773;28;20022;-68
2021/05/14 06:13:05;;;;;;;2.35;0.25;;;;;;;;;;5010578;28;20090;-68
2021/05/14 06:15:32;;;;;;;1.30;0.20;;;;;;;;;;4993102;28;20394;-69
2021/05/14 06:17:59;;;;;;;2.45;0.45;;;;;;;;;;4993195;28;20129;-69
2021/05/14 06:20:29;;;;;;;2.20;0.20;;;;;;;;;;4995293;28;20062;-68
2021/05/14 06:22:56;;;;;;;3.63;0.40;;;;;;;;;;4976354;28;20034;-68
2021/05/14 06:25:23;;;;;;;3.72;0.20;;;;;;;;;;4992778;28;20039;-69
2021/05/14 06:27:50;;;;;;;1.23;0.20;;;;;;;;;;5007123;28;20026;-68
2021/05/14 06:30:19;;;;;;;1.67;0.20;;;;;;;;;;5012746;28;20537;-68
2021/05/14 06:32:46;;;;;;;4.38;0.50;;;;;;;;;;5010411;28;20109;-68
2021/05/14 06:35:14;;;;;;;0.85;0.10;;;;;;;;;;5012628;28;20024;-68
2021/05/14 06:37:41;;;;;;;1.20;0.20;;;;;;;;;;5011438;28;20030;-68
2021/05/14 06:40:09;;;;;;;1.10;0.20;;;;;;;;;;5011858;28;20433;-68
2021/05/14 06:42:36;;;;;;;3.75;0.30;;;;;;;;;;5011772;28;20238;-68
2021/05/14 06:45:04;;;;;;;2.35;0.30;;;;;;;;;;4993383;28;20529;-68
2021/05/14 06:47:31;;;;;;;1.25;0.30;;;;;;;;;;5012369;28;20470;-68
2021/05/14 06:50:03;;;;;;;2.20;0.40;;;;;;;;;;5010520;28;20025;-68
2021/05/14 06:52:30;;;;;;;1.85;0.40;;;;;;;;;;5008331;28;20033;-68
2021/05/14 06:54:57;;;;;;;1.42;0.30;;;;;;;;;;5013715;28;20030;-68
2021/05/14 06:57:25;;;;;;;2.78;1.17;;;;;;;;;;5016035;28;20069;-68
2021/05/14 06:59:52;;;;;;;2.08;0.50;;;;;;;;;;4997376;28;20030;-69
2021/05/14 07:02:19;;;;;;;1.77;0.20;;;;;;;;;;4998279;28;20084;-68
2021/05/14 07:04:46;;;;;;;2.05;0.20;;;;;;;;;;5013287;28;20026;-68
2021/05/14 07:07:13;;;;;;;1.90;0.20;;;;;;;;;;5016081;28;20394;-68
2021/05/14 07:09:40;;;;;;;3.53;0.20;;;;;;;;;;5014523;28;20029;-69
2021/05/14 07:12:08;;;;;;;2.00;0.52;;;;;;;;;;5013869;28;20444;-68
2021/05/14 07:14:35;;;;;;;3.85;1.27;;;;;;;;;;5011772;28;20026;-68
2021/05/14 07:17:02;;;;;;;1.60;0.30;;;;;;;;;;4997907;28;20030;-68
2021/05/14 07:19:29;;;;;;;1.90;0.25;;;;;;;;;;5012390;28;20028;-68
2021/05/14 07:21:56;;;;;;;2.50;0.52;;;;;;;;;;5010817;28;20515;-68
2021/05/14 07:24:24;;;;;;;1.85;0.20;;;;;;;;;;4996436;28;20088;-68
2021/05/14 07:26:51;;;;;;;7.18;0.40;;;;;;;;;;5015464;28;20103;-67
2021/05/14 07:29:18;;;;;;;2.40;0.50;;;;;;;;;;4995780;28;20606;-70
2021/05/14 07:31:45;;;;;;;3.50;0.50;;;;;;;;;;5015331;28;20030;-68
2021/05/14 07:34:12;;;;;;;1.58;0.30;;;;;;;;;;4996189;28;20056;-68
2021/05/14 07:36:39;;;;;;;2.63;0.30;;;;;;;;;;4997682;28;20113;-68
2021/05/14 07:39:07;;;;;;;2.40;0.20;;;;;;;;;;5013758;28;20517;-68
2021/05/14 07:41:34;;;;;;;3.33;0.50;;;;;;;;;;5015245;28;20033;-68
2021/05/14 07:44:01;;;;;;;3.08;1.05;;;;;;;;;;4995534;28;20034;-68
2021/05/14 07:46:28;;;;;;;2.65;0.30;;;;;;;;;;5015051;28;20029;-67
2021/05/14 07:48:55;;;;;;;1.67;0.40;;;;;;;;;;5013593;28;20033;-68
2021/05/14 07:51:22;;;;;;;3.53;0.60;;;;;;;;;;5015160;28;20022;-68
2021/05/14 07:53:49;;;;;;;2.70;0.52;;;;;;;;;;5012794;28;20100;-68
2021/05/14 07:56:17;;;;;;;2.85;0.50;;;;;;;;;;5014648;28;20030;-68
2021/05/14 07:58:44;;;;;;;2.30;0.55;;;;;;;;;;5013463;28;20021;-68
2021/05/14 08:01:11;;;;;;;2.90;0.93;;;;;;;;;;4997190;28;20040;-68
2021/05/14 08:03:38;;;;;;;0.73;0.43;;;;;;;;;;5012556;28;20061;-68
2021/05/14 08:06:06;;;;;;;1.15;0.30;;;;;;;;;;5009407;28;20030;-68
2021/05/14 08:08:38;;;;;;;1.73;0.60;;;;;;;;;;5012064;28;20076;-68
2021/05/14 08:11:05;;;;;;;3.55;1.42;;;;;;;;;;5014684;28;20014;-68
2021/05/14 08:13:32;;;;;;;3.92;1.02;;;;;;;;;;4995657;28;20030;-68
2021/05/14 08:15:59;;;;;;;2.40;0.20;;;;;;;;;;4983827;28;20057;-68
2021/05/14 08:18:26;;;;;;;1.42;0.38;;;;;;;;;;4995277;28;20032;-68
2021/05/14 08:20:57;;;;;;;3.30;0.35;;;;;;;;;;5014744;28;20371;-68
2021/05/14 08:23:24;;;;;;;0.55;0.28;;;;;;;;;;5012610;28;20140;-69
2021/05/14 08:25:51;;;;;;;1.80;0.98;;;;;;;;;;4996646;28;20038;-68
2021/05/14 08:28:19;;;;;;;3.33;1.95;;;;;;;;;;4995553;28;20121;-68
2021/05/14 08:30:47;;;;;;;9.27;3.72;;;;;;;;;;5014052;28;20026;-68
2021/05/14 08:33:14;;;;;;;5.18;0.32;;;;;;;;;;5011272;28;20026;-68
2021/05/14 08:35:41;;;;;;;1.98;0.60;;;;;;;;;;4997125;28;20072;-67
2021/05/14 08:38:11;;;;;;;3.10;0.73;;;;;;;;;;5011896;28;20024;-67
2021/05/14 08:40:40;;;;;;;5.15;2.10;;;;;;;;;;4996508;28;20026;-67
2021/05/14 08:43:07;;;;;;;4.40;0.88;;;;;;;;;;5007834;28;20144;-67
2021/05/14 08:45:34;;;;;;;1.48;0.40;;;;;;;;;;5013716;28;20037;-67
2021/05/14 08:48:01;;;;;;;2.92;0.80;;;;;;;;;;5012990;28;20022;-67
2021/05/14 08:50:29;;;;;;;4.30;1.30;;;;;;;;;;4996872;28;20025;-67
2021/05/14 08:52:57;;;;;;;6.90;3.63;;;;;;;;;;5012696;28;20097;-67
2021/05/14 08:55:24;;;;;;;4.20;0.47;;;;;;;;;;4996407;28;20153;-67
2021/05/14 08:57:52;;;;;;;5.20;0.88;;;;;;;;;;4994422;28;20021;-66
2021/05/14 09:00:19;;;;;;;1.65;0.43;;;;;;;;;;5011707;28;20030;-67
2021/05/14 09:02:47;;;;;;;4.32;0.60;;;;;;;;;;4992529;28;20084;-66
2021/05/14 09:05:24;;;;;;;3.65;0.50;;;;;;;;;;4996069;28;20049;-69
2021/05/14 09:07:52;;;;;;;1.95;0.60;;;;;;;;;;4994319;28;20401;-67
2021/05/14 09:10:19;;;;;;;5.65;0.47;;;;;;;;;;4991724;28;20104;-67
2021/05/14 09:12:47;;;;;;;5.03;1.30;;;;;;;;;;5010011;28;20026;-67
2021/05/14 09:15:35;;;;;;;1.27;0.50;;;;;;;;;;5011939;28;20046;-70
2021/05/14 09:18:06;;;;;;;3.08;0.55;;;;;;;;;;5011839;28;20022;-67
2021/05/14 09:20:38;;;;;;;2.88;0.73;;;;;;;;;;5011189;28;20052;-68
2021/05/14 09:23:25;;;;;;;3.15;0.30;;;;;;;;;;5011400;28;20451;-67
2021/05/14 09:25:52;;;;;;;3.28;0.63;;;;;;;;;;5013357;28;20104;-67
2021/05/14 09:28:26;;;;;;;1.88;0.73;;;;;;;;;;5012091;28;20026;-67
2021/05/14 09:31:04;;;;;;;2.03;0.32;;;;;;;;;;5013332;28;20474;-68
2021/05/14 09:33:32;;;;;;;4.20;1.27;;;;;;;;;;4993737;28;20509;-67
2021/05/14 09:36:00;;;;;;;4.60;1.95;;;;;;;;;;5013179;28;20056;-67
2021/05/14 09:38:27;;;;;;;12.02;7.13;;;;;;;;;;5011809;28;20021;-69
2021/05/14 09:40:55;;;;;;;7.60;5.00;;;;;;;;;;5013234;28;20045;-68
2021/05/14 09:43:26;;;;;;;20.55;12.15;;;;;;;;;;5006169;28;20435;-67
2021/05/14 09:45:53;;;;;;;5.57;3.33;;;;;;;;;;4975659;28;20038;-67
2021/05/14 09:48:26;;;;;;;6.65;3.40;;;;;;;;;;4980522;28;20103;-67
2021/05/14 09:50:58;;;;;;;6.15;2.13;;;;;;;;;;5012953;28;20018;-67
2021/05/14 09:53:25;;;;;;;3.75;1.67;;;;;;;;;;4993770;28;20030;-67
2021/05/14 09:56:14;;;;;;;3.05;1.50;;;;;;;;;;5007698;28;20022;-67
2021/05/14 09:58:50;;;;;;;4.47;0.70;;;;;;;;;;5009427;28;20511;-67
2021/05/14 10:01:17;;;;;;;3.67;1.00;;;;;;;;;;5013047;28;20022;-67
2021/05/14 10:03:45;;;;;;;1.90;0.60;;;;;;;;;;5007028;28;20026;-67
2021/05/14 10:06:12;;;;;;;2.80;0.80;;;;;;;;;;5012557;28;20486;-68
2021/05/14 10:08:42;;;;;;;8.48;4.20;;;;;;;;;;4994250;28;20035;-68
2021/05/14 10:11:10;;;;;;;5.30;3.13;;;;;;;;;;5012780;28;20100;-68
2021/05/14 10:13:37;;;;;;;3.40;1.15;;;;;;;;;;5010633;28;20509;-68
2021/05/14 10:16:06;;;;;;;2.53;1.30;;;;;;;;;;4993011;28;20051;-68
2021/05/14 10:18:35;;;;;;;4.25;1.38;;;;;;;;;;4999294;28;20022;-68
2021/05/14 10:21:10;;;;;;;2.65;0.52;;;;;;;;;;5012636;28;20422;-68
2021/05/14 10:23:37;;;;;;;5.22;0.95;;;;;;;;;;4993418;28;20034;-69
2021/05/14 10:26:08;;;;;;;3.30;0.70;;;;;;;;;;5012514;28;20537;-68
2021/05/14 10:28:49;;;;;;;2.85;0.52;;;;;;;;;;5012101;28;20026;-68
2021/05/14 10:31:18;;;;;;;2.15;0.60;;;;;;;;;;4999019;28;20137;-68
2021/05/14 10:33:52;;;;;;;3.28;0.50;;;;;;;;;;5014344;28;20022;-68
2021/05/14 10:36:28;;;;;;;2.90;1.05;;;;;;;;;;5014294;28;20513;-68
2021/05/14 10:39:07;;;;;;;1.85;0.68;;;;;;;;;;5014713;28;20446;-68
2021/05/14 10:41:35;;;;;;;2.97;0.75;;;;;;;;;;5016352;28;20033;-68
2021/05/14 10:44:06;;;;;;;3.88;1.05;;;;;;;;;;5014913;28;20112;-68
2021/05/14 10:46:33;;;;;;;4.65;1.63;;;;;;;;;;5016310;28;20470;-68
2021/05/14 10:49:02;;;;;;;5.25;0.90;;;;;;;;;;4995296;28;20026;-68
2021/05/14 10:52:01;;;;;;;4.15;1.08;;;;;;;;;;4996423;28;20018;-69
2021/05/14 10:54:43;;;;;;;2.17;0.65;;;;;;;;;;4978823;28;20121;-68
2021/05/14 10:57:11;;;;;;;5.60;0.82;;;;;;;;;;5013955;28;20383;-67
2021/05/14 10:59:39;;;;;;;3.15;0.70;;;;;;;;;;5013912;28;20100;-68
2021/05/14 11:02:24;;;;;;;2.95;0.70;;;;;;;;;;5016180;28;20037;-68
2021/05/14 11:04:51;;;;;;;3.85;0.80;;;;;;;;;;5014179;28;20502;-68
2021/05/14 11:07:35;;;;;;;2.70;0.70;;;;;;;;;;5015584;28;20014;-68
2021/05/14 11:10:28;;;;;;;4.80;1.00;;;;;;;;;;5013924;28;20041;-68
2021/05/14 11:12:56;;;;;;;3.42;0.80;;;;;;;;;;5009342;28;20038;-68
2021/05/14 11:15:23;;;;;;;3.70;0.77;;;;;;;;;;4997808;28;20141;-68
2021/05/14 11:18:08;;;;;;;3.50;0.90;;;;;;;;;;5014024;28;20026;-67
2021/05/14 11:20:43;;;;;;;2.92;0.82;;;;;;;;;;5015697;28;20114;-68
2021/05/14 11:23:27;;;;;;;3.33;1.00;;;;;;;;;;5014638;28;20089;-68
2021/05/14 11:25:55;;;;;;;2.35;0.85;;;;;;;;;;4997908;28;20042;-68
2021/05/14 11:28:37;;;;;;;4.90;0.90;;;;;;;;;;4995079;28;20038;-67
2021/05/14 11:31:04;;;;;;;5.18;0.90;;;;;;;;;;5015632;28;20427;-67
2021/05/14 11:33:31;;;;;;;6.40;1.08;;;;;;;;;;5013635;28;20032;-67
2021/05/14 11:35:58;;;;;;;4.45;1.10;;;;;;;;;;5015311;28;20018;-67
2021/05/14 11:38:25;;;;;;;7.70;1.40;;;;;;;;;;5013772;28;20079;-67
2021/05/14 11:40:53;;;;;;;7.13;1.58;;;;;;;;;;4997623;28;20026;-67
2021/05/14 11:43:24;;;;;;;5.93;2.05;;;;;;;;;;5012552;28;20126;-67
2021/05/14 11:45:51;;;;;;;4.18;1.30;;;;;;;;;;4985934;28;20096;-67
2021/05/14 11:48:21;;;;;;;3.65;1.27;;;;;;;;;;4999521;28;20013;-67
2021/05/14 11:50:49;;;;;;;10.35;1.70;;;;;;;;;;5014987;28;20537;-68
2021/05/14 11:53:17;;;;;;;3.95;1.42;;;;;;;;;;4988285;28;20030;-68
2021/05/14 11:55:46;;;;;;;3.85;0.90;;;;;;;;;;4996380;28;20030;-67
2021/05/14 11:58:14;;;;;;;4.07;0.90;;;;;;;;;;5013277;28;20091;-67
2021/05/14 12:00:45;;;;;;;6.30;1.90;;;;;;;;;;5014977;28;20050;-67
2021/05/14 12:03:13;;;;;;;5.18;0.88;;;;;;;;;;5012999;28;20030;-67
2021/05/14 12:05:41;;;;;;;4.82;1.45;;;;;;;;;;5014900;28;20026;-68
2021/05/14 12:08:12;;;;;;;4.03;0.95;;;;;;;;;;5012869;28;20028;-68
2021/05/14 12:10:55;;;;;;;2.72;0.85;;;;;;;;;;5014838;28;20513;-68
2021/05/14 12:13:24;;;;;;;5.85;1.27;;;;;;;;;;5012943;28;20041;-67
2021/05/14 12:15:57;;;;;;;5.75;1.35;;;;;;;;;;5013566;28;20097;-67
2021/05/14 12:18:25;;;;;;;4.63;0.90;;;;;;;;;;5013089;28;20149;-67
2021/05/14 12:20:55;;;;;;;3.20;1.00;;;;;;;;;;5014548;28;20033;-68
2021/05/14 12:23:24;;;;;;;2.50;0.80;;;;;;;;;;4995204;28;20034;-68
2021/05/14 12:25:53;;;;;;;5.38;1.08;;;;;;;;;;5011101;28;20120;-67
2021/05/14 12:28:32;;;;;;;5.85;1.48;;;;;;;;;;5012103;28;20053;-68
2021/05/14 12:31:00;;;;;;;4.20;1.23;;;;;;;;;;4996359;28;20080;-68
2021/05/14 12:33:27;;;;;;;6.32;1.23;;;;;;;;;;5012116;28;20045;-68
2021/05/14 12:35:58;;;;;;;5.13;1.08;;;;;;;;;;5014067;28;20105;-67
2021/05/14 12:39:00;;;;;;;6.90;1.38;;;;;;;;;;5006586;28;20045;-67
2021/05/14 12:41:29;;;;;;;3.25;0.88;;;;;;;;;;4934223;29;20064;-68
2021/05/14 12:44:14;;;;;;;4.40;0.90;;;;;;;;;;4992719;28;20049;-68
2021/05/14 12:46:59;;;;;;;5.05;1.45;;;;;;;;;;5010066;28;20033;-68
2021/05/14 12:49:28;;;;;;;3.17;0.95;;;;;;;;;;5008312;28;20382;-68
2021/05/14 12:52:02;;;;;;;3.78;1.02;;;;;;;;;;5013513;28;20018;-67
2021/05/14 12:54:29;;;;;;;6.32;1.40;;;;;;;;;;5008726;28;20014;-67
2021/05/14 12:56:56;;;;;;;4.10;0.80;;;;;;;;;;4994129;28;20023;-67
2021/05/14 12:59:23;;;;;;;8.68;1.10;;;;;;;;;;5007141;28;20038;-67
2021/05/14 13:01:51;;;;;;;4.70;1.00;;;;;;;;;;5013654;28;20026;-67
2021/05/14 13:04:19;;;;;;;6.00;1.65;;;;;;;;;;4994311;28;20038;-67
2021/05/14 13:06:46;;;;;;;2.47;1.20;;;;;;;;;;5013483;28;20152;-67
2021/05/14 13:09:14;;;;;;;3.72;1.10;;;;;;;;;;5012077;28;20025;-67
2021/05/14 13:11:42;;;;;;;6.45;1.15;;;;;;;;;;4995967;28;20483;-67
2021/05/14 13:14:13;;;;;;;3.97;0.90;;;;;;;;;;4991670;28;20033;-67
2021/05/14 13:16:40;;;;;;;4.22;1.20;;;;;;;;;;4995697;28;20049;-67
2021/05/14 13:19:07;;;;;;;5.97;0.93;;;;;;;;;;5012067;28;20533;-67
2021/05/14 13:21:34;;;;;;;3.63;1.13;;;;;;;;;;4995811;28;20077;-67
2021/05/14 13:24:02;;;;;;;9.43;1.35;;;;;;;;;;4994120;28;20044;-67
2021/05/14 13:26:29;;;;;;;4.07;1.35;;;;;;;;;;5013379;28;20031;-67
2021/05/14 13:28:56;;;;;;;5.28;1.33;;;;;;;;;;5012334;28;20068;-67
2021/05/14 13:31:23;;;;;;;3.03;1.30;;;;;;;;;;5013386;28;20080;-67
2021/05/14 13:33:54;;;;;;;3.17;1.17;;;;;;;;;;5004286;28;20061;-67
2021/05/14 13:36:22;;;;;;;4.57;1.27;;;;;;;;;;4995408;28;20522;-67
2021/05/14 13:38:49;;;;;;;6.22;1.88;;;;;;;;;;5012212;28;21004;-67
2021/05/14 13:41:16;;;;;;;9.93;2.00;;;;;;;;;;5007283;28;20030;-67
2021/05/14 13:43:43;;;;;;;6.70;1.48;;;;;;;;;;4983439;28;20076;-67
2021/05/14 13:46:10;;;;;;;7.55;1.73;;;;;;;;;;5013104;28;20033;-67
2021/05/14 13:48:38;;;;;;;6.65;1.40;;;;;;;;;;5011475;28;20509;-67
2021/05/14 13:51:05;;;;;;;5.28;1.15;;;;;;;;;;5012854;28;20028;-67
2021/05/14 13:53:32;;;;;;;6.15;1.27;;;;;;;;;;5011178;28;20036;-67
2021/05/14 13:55:59;;;;;;;4.38;1.45;;;;;;;;;;5012396;28;20037;-67
2021/05/14 13:58:26;;;;;;;4.82;1.33;;;;;;;;;;5010382;28;20026;-67
2021/05/14 14:00:54;;;;;;;4.93;1.33;;;;;;;;;;5012657;28;20052;-67
2021/05/14 14:03:21;;;;;;;7.68;2.03;;;;;;;;;;5009781;28;20033;-67
2021/05/14 14:05:48;;;;;;;4.43;1.25;;;;;;;;;;5012717;28;20037;-67
2021/05/14 14:08:16;;;;;;;7.07;1.88;;;;;;;;;;5011075;28;20035;-67
2021/05/14 14:10:43;;;;;;;5.72;1.38;;;;;;;;;;4994742;28;20030;-67
2021/05/14 14:13:11;;;;;;;4.35;1.17;;;;;;;;;;5010660;28;20080;-67
2021/05/14 14:15:39;;;;;;;4.78;1.75;;;;;;;;;;4993752;28;20081;-67
2021/05/14 14:18:06;;;;;;;4.82;1.13;;;;;;;;;;5006684;28;20022;-67
2021/05/14 14:20:34;;;;;;;4.70;1.60;;;;;;;;;;5012447;28;20033;-67
2021/05/14 14:23:01;;;;;;;7.88;1.38;;;;;;;;;;5010554;28;20054;-67
2021/05/14 14:25:29;;;;;;;6.22;1.45;;;;;;;;;;5012485;28;20565;-67
2021/05/14 14:27:56;;;;;;;5.03;1.27;;;;;;;;;;5008199;28;20124;-67
2021/05/14 14:30:23;;;;;;;9.07;2.08;;;;;;;;;;5012556;28;20028;-67
2021/05/14 14:32:50;;;;;;;5.28;1.35;;;;;;;;;;5010519;28;20021;-67
2021/05/14 14:35:17;;;;;;;5.22;1.58;;;;;;;;;;5007703;28;20553;-67
2021/05/14 14:37:45;;;;;;;3.65;1.30;;;;;;;;;;5008028;28;20026;-67
2021/05/14 14:40:13;;;;;;;5.82;1.38;;;;;;;;;;5012356;28;20057;-67
2021/05/14 14:42:41;;;;;;;8.27;2.13;;;;;;;;;;5011328;28;20026;-67
2021/05/14 14:45:11;;;;;;;5.65;1.13;;;;;;;;;;5011930;28;20446;-66
2021/05/14 14:47:39;;;;;;;5.13;1.40;;;;;;;;;;5011444;28;20483;-67
2021/05/14 14:50:07;;;;;;;6.93;1.90;;;;;;;;;;5011498;28;20026;-67
2021/05/14 14:52:34;;;;;;;6.65;1.70;;;;;;;;;;5011993;28;20042;-67